Minerva Virgo — SXXT — position and weather

sailwx.info

Track history (hours):
 
Tides and Currents Weather Stations Pressure Air Temp Water Temp Dewpoint Dewpoint Depression Visibility Wind Speed Wind Dir Waves Ship Positions

Minerva Virgo

Last reported at 2016-Apr-15 20:32 UTC. Time now 2016-Apr-28 21:30 UTC.
Position N 27°41' W 015°17'.
Warning: this ship's position is 13 days out of date.

Length 182 m; draft 11 m.

Type: Ship (hazmat cat A). MMSI: 240730000.

Date/timePositionNaut miles runAvg speedWind from/ knotsBaromVisibWave heightAir tempDewpointWater temp
2016-Apr-15 20:32N 27°41' W 015°17'1514.9
2016-Apr-15 19:33N 27°56' W 015°16'1313.1
2016-Apr-15 18:33N 28°08' W 015°23'2 1.4
2016-Apr-15 17:26N 28°09' W 015°24'0 0.0
2016-Apr-15 16:26N 28°08' W 015°24'0 0.0
2016-Apr-15 15:29N 28°08' W 015°24'0 0.0
2016-Apr-15 14:29N 28°08' W 015°24'0 0.0
2016-Apr-15 13:29N 28°09' W 015°24'0 0.0
2016-Apr-15 12:32N 28°09' W 015°24'0 0.2
2016-Apr-15 11:32N 28°08' W 015°24'2 2.2
2016-Apr-15 10:33N 28°08' W 015°21'9 9.3
2016-Apr-15 09:33N 28°16' W 015°15'1414.2
2016-Apr-15 08:33N 28°30' W 015°11'1414.2
2016-Apr-15 07:33N 28°43' W 015°06'1514.5
2016-Apr-15 06:33N 28°57' W 015°02'1514.6
2016-Apr-15 05:32N 29°11' W 014°57'1514.6
2016-Apr-15 04:30N 29°26' W 014°52'1414.6
2016-Apr-15 03:31N 29°40' W 014°47'  
2016-Apr-10 19:06N 49°43' W 003°40'611.4
2016-Apr-10 18:33N 49°46' W 003°31'1211.9
2016-Apr-10 17:34N 49°52' W 003°15'1212.1
2016-Apr-10 16:34N 49°58' W 002°59'1514.6
2016-Apr-10 15:32N 50°03' W 002°37'8413.8
2016-Apr-10 09:29N 50°25' W 000°31'1212.7
2016-Apr-10 08:33N 50°28' W 000°13'1514.7
2016-Apr-10 07:33N 50°32' E 000°09'1816.0
2016-Apr-10 06:25N 50°38' E 000°37'2915.2
2016-Apr-10 04:31N 50°56' E 001°13'1213.0
2016-Apr-10 03:33N 51°04' E 001°27'1111.5
2016-Apr-10 02:33N 51°11' E 001°42'1211.9
2016-Apr-10 01:33N 51°21' E 001°52'1413.7
2016-Apr-10 00:34N 51°33' E 002°04'1815.7
2016-Apr-09 23:26N 51°46' E 002°23'7214.7
2016-Apr-09 18:33N 52°31' E 003°54'1414.1
2016-Apr-09 17:33N 52°30' E 004°17'1110.9
2016-Apr-09 16:33N 52°28' E 004°34'2 2.0
2016-Apr-09 15:33N 52°28' E 004°38'5 5.2
2016-Apr-09 14:33N 52°25' E 004°45'0 0.4
2016-Apr-09 13:30N 52°25' E 004°45'0 0.0
2016-Apr-09 12:33N 52°25' E 004°45'0 0.0
2016-Apr-09 11:33N 52°25' E 004°45'0 0.0
2016-Apr-09 10:33N 52°25' E 004°45'0 0.0
2016-Apr-09 09:33N 52°25' E 004°45'0 0.0
2016-Apr-09 08:33N 52°25' E 004°45'0 0.0
2016-Apr-09 07:33N 52°25' E 004°45'0 0.0
2016-Apr-09 06:33N 52°25' E 004°45'0 0.0
2016-Apr-09 05:30N 52°25' E 004°45'0 0.0
2016-Apr-09 04:30N 52°25' E 004°45'0 0.0
2016-Apr-09 03:33N 52°25' E 004°45'0 0.0
2016-Apr-09 02:30N 52°25' E 004°45'0 0.0
2016-Apr-09 01:33N 52°25' E 004°45'0 0.0
2016-Apr-09 00:30N 52°25' E 004°45'0 0.0
2016-Apr-08 23:33N 52°25' E 004°45'0 0.0
2016-Apr-08 22:30N 52°25' E 004°45'0 0.0
2016-Apr-08 21:33N 52°25' E 004°45'0 0.0
2016-Apr-08 20:33N 52°25' E 004°45'0 0.0
2016-Apr-08 19:30N 52°25' E 004°45'0 0.0
2016-Apr-08 18:33N 52°25' E 004°45'0 0.0
2016-Apr-08 17:33N 52°25' E 004°45'0 0.0
2016-Apr-08 16:33N 52°25' E 004°45'0 0.0
2016-Apr-08 15:33N 52°25' E 004°45'0 0.0
2016-Apr-08 14:33N 52°25' E 004°45'0 0.0
2016-Apr-08 13:33N 52°25' E 004°45'0 0.0
2016-Apr-08 12:33N 52°25' E 004°45'0 0.0
2016-Apr-08 11:27N 52°25' E 004°45'0 0.0
2016-Apr-08 10:33N 52°25' E 004°45'0 0.0
2016-Apr-08 09:33N 52°25' E 004°45'0 0.0
2016-Apr-08 08:33N 52°25' E 004°45'0 0.0
2016-Apr-08 07:27N 52°25' E 004°45'0 0.0
2016-Apr-08 06:33N 52°25' E 004°45'0 0.0
2016-Apr-08 05:33N 52°25' E 004°45'0 0.0
2016-Apr-08 04:33N 52°25' E 004°45'0 0.0
2016-Apr-08 03:33N 52°25' E 004°45'0 0.0
2016-Apr-08 02:33N 52°25' E 004°45'0 0.0
2016-Apr-08 01:30N 52°25' E 004°45'0 0.0
2016-Apr-08 00:33N 52°25' E 004°45'0 0.0
2016-Apr-07 23:33N 52°25' E 004°45'0 0.0
2016-Apr-07 22:30N 52°25' E 004°45'0 0.0
2016-Apr-07 21:27N 52°25' E 004°45'0 0.0
2016-Apr-07 20:30N 52°25' E 004°45'0 0.0
2016-Apr-07 19:33N 52°25' E 004°45'0 0.0
2016-Apr-07 18:27N 52°25' E 004°45'0 0.0
2016-Apr-07 17:30N 52°25' E 004°45'0 0.0
2016-Apr-07 16:33N 52°25' E 004°45'0 0.0
2016-Apr-07 15:33N 52°25' E 004°45'0 0.0
2016-Apr-07 14:33N 52°25' E 004°45'0 0.0
2016-Apr-07 13:30N 52°25' E 004°45'0 0.0
2016-Apr-07 12:27N 52°25' E 004°45'0 0.0
2016-Apr-07 11:33N 52°25' E 004°45'0 0.0
2016-Apr-07 10:33N 52°25' E 004°45'0 0.0
2016-Apr-07 09:30N 52°25' E 004°45'0 0.0
2016-Apr-07 08:30N 52°25' E 004°45'0 0.0
2016-Apr-07 07:33N 52°25' E 004°45'0 0.0
2016-Apr-07 06:33N 52°25' E 004°45'0 0.0
2016-Apr-07 05:30N 52°25' E 004°45'0 0.0
2016-Apr-07 04:33N 52°25' E 004°45'0 0.0
2016-Apr-07 03:33N 52°25' E 004°45'0 0.0
2016-Apr-07 02:33N 52°25' E 004°45'0 0.0
2016-Apr-07 01:30N 52°25' E 004°45'0 0.0
2016-Apr-07 00:33N 52°25' E 004°45'0 0.0
2016-Apr-06 23:33N 52°25' E 004°45'0 0.0
2016-Apr-06 22:27N 52°25' E 004°45'0 0.0
2016-Apr-06 21:33N 52°25' E 004°45'0 0.0
2016-Apr-06 20:33N 52°25' E 004°45'0 0.0
2016-Apr-06 19:33N 52°25' E 004°45'0 0.0
2016-Apr-06 18:30N 52°25' E 004°45'0 0.0
2016-Apr-06 17:33N 52°25' E 004°45'0 0.0
2016-Apr-06 16:33N 52°25' E 004°45'0 0.0
2016-Apr-06 15:27N 52°25' E 004°45'0 0.0
2016-Apr-06 14:30N 52°25' E 004°45'0 0.0
2016-Apr-06 13:33N 52°25' E 004°45'0 0.0
2016-Apr-06 12:33N 52°25' E 004°45'0 0.0
2016-Apr-06 11:33N 52°25' E 004°45'0 0.0
2016-Apr-06 10:33N 52°25' E 004°45'0 0.0
2016-Apr-06 09:33N 52°25' E 004°45'0 0.0
2016-Apr-06 08:33N 52°25' E 004°45'0 0.0
2016-Apr-06 07:33N 52°25' E 004°45'0 0.0
2016-Apr-06 06:33N 52°25' E 004°45'0 0.0
2016-Apr-06 05:33N 52°25' E 004°45'0 0.0
2016-Apr-06 04:33N 52°25' E 004°45'0 0.0
2016-Apr-06 03:33N 52°25' E 004°45'4 3.5
2016-Apr-06 02:33N 52°27' E 004°41'4 4.0
2016-Apr-06 01:34N 52°28' E 004°34'8 8.2
2016-Apr-06 00:33N 52°31' E 004°22'1 1.3
2016-Apr-05 23:33N 52°32' E 004°20'0 0.1
2016-Apr-05 22:33N 52°32' E 004°20'0 0.1
2016-Apr-05 21:33N 52°32' E 004°20'0 0.0
2016-Apr-05 20:33N 52°32' E 004°20'  
Track history (hours):
 
Tides and Currents Weather Stations Pressure Air Temp Water Temp Dewpoint Dewpoint Depression Visibility Wind Speed Wind Dir Waves Ship Positions

Minerva Virgo

Last reported at 2016-Apr-15 20:32 UTC. Time now 2016-Apr-28 21:30 UTC.
Position N 27°41' W 015°17'.
Warning: this ship's position is 13 days out of date.

Length 182 m; draft 11 m.

Type: Ship (hazmat cat A). MMSI: 240730000.

Date/timePositionNaut miles runAvg speedWind from/ knotsBaromVisibWave heightAir tempDewpointWater temp
2016-Apr-15 20:32N 27°41' W 015°17'1514.9
2016-Apr-15 19:33N 27°56' W 015°16'1313.1
2016-Apr-15 18:33N 28°08' W 015°23'2 1.4
2016-Apr-15 17:26N 28°09' W 015°24'0 0.0
2016-Apr-15 16:26N 28°08' W 015°24'0 0.0
2016-Apr-15 15:29N 28°08' W 015°24'0 0.0
2016-Apr-15 14:29N 28°08' W 015°24'0 0.0
2016-Apr-15 13:29N 28°09' W 015°24'0 0.0
2016-Apr-15 12:32N 28°09' W 015°24'0 0.2
2016-Apr-15 11:32N 28°08' W 015°24'2 2.2
2016-Apr-15 10:33N 28°08' W 015°21'9 9.3
2016-Apr-15 09:33N 28°16' W 015°15'1414.2
2016-Apr-15 08:33N 28°30' W 015°11'1414.2
2016-Apr-15 07:33N 28°43' W 015°06'1514.5
2016-Apr-15 06:33N 28°57' W 015°02'1514.6
2016-Apr-15 05:32N 29°11' W 014°57'1514.6
2016-Apr-15 04:30N 29°26' W 014°52'1414.6
2016-Apr-15 03:31N 29°40' W 014°47'  
2016-Apr-10 19:06N 49°43' W 003°40'611.4
2016-Apr-10 18:33N 49°46' W 003°31'1211.9
2016-Apr-10 17:34N 49°52' W 003°15'1212.1
2016-Apr-10 16:34N 49°58' W 002°59'1514.6
2016-Apr-10 15:32N 50°03' W 002°37'8413.8
2016-Apr-10 09:29N 50°25' W 000°31'1212.7
2016-Apr-10 08:33N 50°28' W 000°13'1514.7
2016-Apr-10 07:33N 50°32' E 000°09'1816.0
2016-Apr-10 06:25N 50°38' E 000°37'2915.2
2016-Apr-10 04:31N 50°56' E 001°13'1213.0
2016-Apr-10 03:33N 51°04' E 001°27'1111.5
2016-Apr-10 02:33N 51°11' E 001°42'1211.9
2016-Apr-10 01:33N 51°21' E 001°52'1413.7
2016-Apr-10 00:34N 51°33' E 002°04'1815.7
2016-Apr-09 23:26N 51°46' E 002°23'7214.7
2016-Apr-09 18:33N 52°31' E 003°54'1414.1
2016-Apr-09 17:33N 52°30' E 004°17'1110.9
2016-Apr-09 16:33N 52°28' E 004°34'2 2.0
2016-Apr-09 15:33N 52°28' E 004°38'5 5.2
2016-Apr-09 14:33N 52°25' E 004°45'0 0.4
2016-Apr-09 13:30N 52°25' E 004°45'0 0.0
2016-Apr-09 12:33N 52°25' E 004°45'0 0.0
2016-Apr-09 11:33N 52°25' E 004°45'0 0.0
2016-Apr-09 10:33N 52°25' E 004°45'0 0.0
2016-Apr-09 09:33N 52°25' E 004°45'0 0.0
2016-Apr-09 08:33N 52°25' E 004°45'0 0.0
2016-Apr-09 07:33N 52°25' E 004°45'0 0.0
2016-Apr-09 06:33N 52°25' E 004°45'0 0.0
2016-Apr-09 05:30N 52°25' E 004°45'0 0.0
2016-Apr-09 04:30N 52°25' E 004°45'0 0.0
2016-Apr-09 03:33N 52°25' E 004°45'0 0.0
2016-Apr-09 02:30N 52°25' E 004°45'0 0.0
2016-Apr-09 01:33N 52°25' E 004°45'0 0.0
2016-Apr-09 00:30N 52°25' E 004°45'0 0.0
2016-Apr-08 23:33N 52°25' E 004°45'0 0.0
2016-Apr-08 22:30N 52°25' E 004°45'0 0.0
2016-Apr-08 21:33N 52°25' E 004°45'0 0.0
2016-Apr-08 20:33N 52°25' E 004°45'0 0.0
2016-Apr-08 19:30N 52°25' E 004°45'0 0.0
2016-Apr-08 18:33N 52°25' E 004°45'0 0.0
2016-Apr-08 17:33N 52°25' E 004°45'0 0.0
2016-Apr-08 16:33N 52°25' E 004°45'0 0.0
2016-Apr-08 15:33N 52°25' E 004°45'0 0.0
2016-Apr-08 14:33N 52°25' E 004°45'0 0.0
2016-Apr-08 13:33N 52°25' E 004°45'0 0.0
2016-Apr-08 12:33N 52°25' E 004°45'0 0.0
2016-Apr-08 11:27N 52°25' E 004°45'0 0.0
2016-Apr-08 10:33N 52°25' E 004°45'0 0.0
2016-Apr-08 09:33N 52°25' E 004°45'0 0.0
2016-Apr-08 08:33N 52°25' E 004°45'0 0.0
2016-Apr-08 07:27N 52°25' E 004°45'0 0.0
2016-Apr-08 06:33N 52°25' E 004°45'0 0.0
2016-Apr-08 05:33N 52°25' E 004°45'0 0.0
2016-Apr-08 04:33N 52°25' E 004°45'0 0.0
2016-Apr-08 03:33N 52°25' E 004°45'0 0.0
2016-Apr-08 02:33N 52°25' E 004°45'0 0.0
2016-Apr-08 01:30N 52°25' E 004°45'0 0.0
2016-Apr-08 00:33N 52°25' E 004°45'0 0.0
2016-Apr-07 23:33N 52°25' E 004°45'0 0.0
2016-Apr-07 22:30N 52°25' E 004°45'0 0.0
2016-Apr-07 21:27N 52°25' E 004°45'0 0.0
2016-Apr-07 20:30N 52°25' E 004°45'0 0.0
2016-Apr-07 19:33N 52°25' E 004°45'0 0.0
2016-Apr-07 18:27N 52°25' E 004°45'0 0.0
2016-Apr-07 17:30N 52°25' E 004°45'0 0.0
2016-Apr-07 16:33N 52°25' E 004°45'0 0.0
2016-Apr-07 15:33N 52°25' E 004°45'0 0.0
2016-Apr-07 14:33N 52°25' E 004°45'0 0.0
2016-Apr-07 13:30N 52°25' E 004°45'0 0.0
2016-Apr-07 12:27N 52°25' E 004°45'0 0.0
2016-Apr-07 11:33N 52°25' E 004°45'0 0.0
2016-Apr-07 10:33N 52°25' E 004°45'0 0.0
2016-Apr-07 09:30N 52°25' E 004°45'0 0.0
2016-Apr-07 08:30N 52°25' E 004°45'0 0.0
2016-Apr-07 07:33N 52°25' E 004°45'0 0.0
2016-Apr-07 06:33N 52°25' E 004°45'0 0.0
2016-Apr-07 05:30N 52°25' E 004°45'0 0.0
2016-Apr-07 04:33N 52°25' E 004°45'0 0.0
2016-Apr-07 03:33N 52°25' E 004°45'0 0.0
2016-Apr-07 02:33N 52°25' E 004°45'0 0.0
2016-Apr-07 01:30N 52°25' E 004°45'0 0.0
2016-Apr-07 00:33N 52°25' E 004°45'0 0.0
2016-Apr-06 23:33N 52°25' E 004°45'0 0.0
2016-Apr-06 22:27N 52°25' E 004°45'0 0.0
2016-Apr-06 21:33N 52°25' E 004°45'0 0.0
2016-Apr-06 20:33N 52°25' E 004°45'0 0.0
2016-Apr-06 19:33N 52°25' E 004°45'0 0.0
2016-Apr-06 18:30N 52°25' E 004°45'0 0.0
2016-Apr-06 17:33N 52°25' E 004°45'0 0.0
2016-Apr-06 16:33N 52°25' E 004°45'0 0.0
2016-Apr-06 15:27N 52°25' E 004°45'0 0.0
2016-Apr-06 14:30N 52°25' E 004°45'0 0.0
2016-Apr-06 13:33N 52°25' E 004°45'0 0.0
2016-Apr-06 12:33N 52°25' E 004°45'0 0.0
2016-Apr-06 11:33N 52°25' E 004°45'0 0.0
2016-Apr-06 10:33N 52°25' E 004°45'0 0.0
2016-Apr-06 09:33N 52°25' E 004°45'0 0.0
2016-Apr-06 08:33N 52°25' E 004°45'0 0.0
2016-Apr-06 07:33N 52°25' E 004°45'0 0.0
2016-Apr-06 06:33N 52°25' E 004°45'0 0.0
2016-Apr-06 05:33N 52°25' E 004°45'0 0.0
2016-Apr-06 04:33N 52°25' E 004°45'0 0.0
2016-Apr-06 03:33N 52°25' E 004°45'4 3.5
2016-Apr-06 02:33N 52°27' E 004°41'4 4.0
2016-Apr-06 01:34N 52°28' E 004°34'8 8.2
2016-Apr-06 00:33N 52°31' E 004°22'1 1.3
2016-Apr-05 23:33N 52°32' E 004°20'0 0.1
2016-Apr-05 22:33N 52°32' E 004°20'0 0.1
2016-Apr-05 21:33N 52°32' E 004°20'0 0.0
2016-Apr-05 20:33N 52°32' E 004°20'  

Dump ship's entire track history